sensor_id;sensor_type;location;lat;lon;timestamp;P1;durP1;ratioP1;P2;durP2;ratioP2
65581;SDS011;52231;40.090;18.348;2022-08-21T00:00:30;7.20;;;2.60;;
65581;SDS011;52231;40.090;18.348;2022-08-21T00:03:00;10.13;;;2.25;;
65581;SDS011;52231;40.090;18.348;2022-08-21T00:05:35;8.30;;;2.75;;
65581;SDS011;52231;40.090;18.348;2022-08-21T00:08:06;6.72;;;2.60;;
65581;SDS011;52231;40.090;18.348;2022-08-21T00:10:34;6.38;;;2.50;;
65581;SDS011;52231;40.090;18.348;2022-08-21T00:13:04;9.63;;;2.38;;
65581;SDS011;52231;40.090;18.348;2022-08-21T00:15:34;11.35;;;2.78;;
65581;SDS011;52231;40.090;18.348;2022-08-21T00:18:05;10.80;;;2.75;;
65581;SDS011;52231;40.090;18.348;2022-08-21T00:20:35;7.18;;;2.60;;
65581;SDS011;52231;40.090;18.348;2022-08-21T00:23:04;9.50;;;2.70;;
65581;SDS011;52231;40.090;18.348;2022-08-21T00:25:33;8.65;;;2.70;;
65581;SDS011;52231;40.090;18.348;2022-08-21T00:28:02;11.20;;;2.63;;
65581;SDS011;52231;40.090;18.348;2022-08-21T00:30:30;8.27;;;2.05;;
65581;SDS011;52231;40.090;18.348;2022-08-21T00:33:00;7.25;;;2.40;;
65581;SDS011;52231;40.090;18.348;2022-08-21T00:35:30;5.85;;;2.10;;
65581;SDS011;52231;40.090;18.348;2022-08-21T00:38:00;5.65;;;2.22;;
65581;SDS011;52231;40.090;18.348;2022-08-21T00:40:32;6.50;;;2.03;;
65581;SDS011;52231;40.090;18.348;2022-08-21T00:43:11;7.68;;;2.05;;
65581;SDS011;52231;40.090;18.348;2022-08-21T00:45:41;6.97;;;2.00;;
65581;SDS011;52231;40.090;18.348;2022-08-21T00:50:38;4.72;;;1.92;;
65581;SDS011;52231;40.090;18.348;2022-08-21T00:53:11;9.70;;;2.30;;
65581;SDS011;52231;40.090;18.348;2022-08-21T00:55:41;8.25;;;2.40;;
65581;SDS011;52231;40.090;18.348;2022-08-21T00:58:10;6.00;;;2.00;;
65581;SDS011;52231;40.090;18.348;2022-08-21T01:00:58;6.03;;;2.05;;
65581;SDS011;52231;40.090;18.348;2022-08-21T01:03:31;9.50;;;2.28;;
65581;SDS011;52231;40.090;18.348;2022-08-21T01:05:59;6.57;;;2.30;;
65581;SDS011;52231;40.090;18.348;2022-08-21T01:08:28;8.07;;;2.15;;
65581;SDS011;52231;40.090;18.348;2022-08-21T01:10:57;7.85;;;2.42;;
65581;SDS011;52231;40.090;18.348;2022-08-21T01:13:27;11.75;;;2.17;;
65581;SDS011;52231;40.090;18.348;2022-08-21T01:15:59;5.13;;;2.17;;
65581;SDS011;52231;40.090;18.348;2022-08-21T01:18:30;9.35;;;2.20;;
65581;SDS011;52231;40.090;18.348;2022-08-21T01:21:09;7.63;;;1.92;;
65581;SDS011;52231;40.090;18.348;2022-08-21T01:23:50;6.20;;;2.20;;
65581;SDS011;52231;40.090;18.348;2022-08-21T01:26:22;10.25;;;2.47;;
65581;SDS011;52231;40.090;18.348;2022-08-21T01:29:05;6.90;;;1.92;;
65581;SDS011;52231;40.090;18.348;2022-08-21T01:31:41;6.45;;;2.10;;
65581;SDS011;52231;40.090;18.348;2022-08-21T01:34:10;6.43;;;2.00;;
65581;SDS011;52231;40.090;18.348;2022-08-21T01:36:39;4.47;;;2.10;;
65581;SDS011;52231;40.090;18.348;2022-08-21T01:39:07;6.85;;;2.33;;
65581;SDS011;52231;40.090;18.348;2022-08-21T01:41:38;8.30;;;2.33;;
65581;SDS011;52231;40.090;18.348;2022-08-21T01:44:07;7.47;;;2.10;;
65581;SDS011;52231;40.090;18.348;2022-08-21T01:46:35;8.80;;;2.10;;
65581;SDS011;52231;40.090;18.348;2022-08-21T01:49:04;5.43;;;2.00;;
65581;SDS011;52231;40.090;18.348;2022-08-21T01:51:32;6.38;;;2.40;;
65581;SDS011;52231;40.090;18.348;2022-08-21T01:54:01;5.68;;;2.10;;
65581;SDS011;52231;40.090;18.348;2022-08-21T01:56:34;5.32;;;1.98;;
65581;SDS011;52231;40.090;18.348;2022-08-21T01:59:14;5.88;;;2.10;;
65581;SDS011;52231;40.090;18.348;2022-08-21T02:01:44;6.50;;;2.30;;
65581;SDS011;52231;40.090;18.348;2022-08-21T02:04:13;5.88;;;2.30;;
65581;SDS011;52231;40.090;18.348;2022-08-21T02:09:10;5.10;;;2.00;;
65581;SDS011;52231;40.090;18.348;2022-08-21T02:11:39;6.80;;;1.98;;
65581;SDS011;52231;40.090;18.348;2022-08-21T02:14:09;7.22;;;2.60;;
65581;SDS011;52231;40.090;18.348;2022-08-21T02:16:57;8.13;;;2.33;;
65581;SDS011;52231;40.090;18.348;2022-08-21T02:19:25;9.32;;;2.20;;
65581;SDS011;52231;40.090;18.348;2022-08-21T02:21:53;5.75;;;2.20;;
65581;SDS011;52231;40.090;18.348;2022-08-21T02:24:21;7.32;;;2.10;;
65581;SDS011;52231;40.090;18.348;2022-08-21T02:26:50;8.32;;;2.25;;
65581;SDS011;52231;40.090;18.348;2022-08-21T02:29:18;9.77;;;2.33;;
65581;SDS011;52231;40.090;18.348;2022-08-21T02:34:14;8.68;;;2.28;;
65581;SDS011;52231;40.090;18.348;2022-08-21T02:36:42;6.82;;;2.30;;
65581;SDS011;52231;40.090;18.348;2022-08-21T02:39:11;6.68;;;2.08;;
65581;SDS011;52231;40.090;18.348;2022-08-21T02:41:39;8.00;;;2.50;;
65581;SDS011;52231;40.090;18.348;2022-08-21T02:44:07;5.47;;;2.17;;
65581;SDS011;52231;40.090;18.348;2022-08-21T02:46:35;7.78;;;2.20;;
65581;SDS011;52231;40.090;18.348;2022-08-21T02:49:03;5.60;;;2.10;;
65581;SDS011;52231;40.090;18.348;2022-08-21T02:51:32;7.38;;;2.10;;
65581;SDS011;52231;40.090;18.348;2022-08-21T02:54:00;7.95;;;2.35;;
65581;SDS011;52231;40.090;18.348;2022-08-21T02:56:28;9.20;;;2.58;;
65581;SDS011;52231;40.090;18.348;2022-08-21T03:01:24;5.80;;;2.20;;
65581;SDS011;52231;40.090;18.348;2022-08-21T03:03:52;7.75;;;2.53;;
65581;SDS011;52231;40.090;18.348;2022-08-21T03:06:21;5.35;;;1.95;;
65581;SDS011;52231;40.090;18.348;2022-08-21T03:08:49;6.50;;;2.60;;
65581;SDS011;52231;40.090;18.348;2022-08-21T03:11:18;6.03;;;2.20;;
65581;SDS011;52231;40.090;18.348;2022-08-21T03:13:47;6.40;;;2.10;;
65581;SDS011;52231;40.090;18.348;2022-08-21T03:16:16;6.03;;;2.45;;
65581;SDS011;52231;40.090;18.348;2022-08-21T03:18:47;6.35;;;2.15;;
65581;SDS011;52231;40.090;18.348;2022-08-21T03:21:15;5.50;;;2.10;;
65581;SDS011;52231;40.090;18.348;2022-08-21T03:23:44;6.28;;;2.58;;
65581;SDS011;52231;40.090;18.348;2022-08-21T03:26:13;7.25;;;2.53;;
65581;SDS011;52231;40.090;18.348;2022-08-21T03:28:41;7.50;;;2.55;;
65581;SDS011;52231;40.090;18.348;2022-08-21T03:31:09;9.18;;;2.60;;
65581;SDS011;52231;40.090;18.348;2022-08-21T03:33:38;6.50;;;2.22;;
65581;SDS011;52231;40.090;18.348;2022-08-21T03:36:06;9.10;;;2.35;;
65581;SDS011;52231;40.090;18.348;2022-08-21T03:38:35;3.85;;;2.00;;
65581;SDS011;52231;40.090;18.348;2022-08-21T03:41:06;6.50;;;2.47;;
65581;SDS011;52231;40.090;18.348;2022-08-21T03:43:35;5.95;;;2.08;;
65581;SDS011;52231;40.090;18.348;2022-08-21T03:46:03;6.72;;;2.42;;
65581;SDS011;52231;40.090;18.348;2022-08-21T03:48:33;6.68;;;2.63;;
65581;SDS011;52231;40.090;18.348;2022-08-21T03:51:03;8.77;;;2.92;;
65581;SDS011;52231;40.090;18.348;2022-08-21T03:53:32;8.57;;;2.40;;
65581;SDS011;52231;40.090;18.348;2022-08-21T03:56:01;6.35;;;2.55;;
65581;SDS011;52231;40.090;18.348;2022-08-21T03:58:29;8.73;;;2.50;;
65581;SDS011;52231;40.090;18.348;2022-08-21T04:00:58;7.70;;;2.50;;
65581;SDS011;52231;40.090;18.348;2022-08-21T04:03:27;9.00;;;2.78;;
65581;SDS011;52231;40.090;18.348;2022-08-21T04:05:56;4.80;;;2.20;;
65581;SDS011;52231;40.090;18.348;2022-08-21T04:08:24;5.97;;;2.30;;
65581;SDS011;52231;40.090;18.348;2022-08-21T04:10:53;7.75;;;2.63;;
65581;SDS011;52231;40.090;18.348;2022-08-21T04:13:24;5.03;;;2.40;;
65581;SDS011;52231;40.090;18.348;2022-08-21T04:15:55;7.22;;;2.80;;
65581;SDS011;52231;40.090;18.348;2022-08-21T04:18:26;6.00;;;2.40;;
65581;SDS011;52231;40.090;18.348;2022-08-21T04:20:54;6.75;;;2.65;;
65581;SDS011;52231;40.090;18.348;2022-08-21T04:23:25;8.07;;;2.90;;
65581;SDS011;52231;40.090;18.348;2022-08-21T04:25:53;5.55;;;2.20;;
65581;SDS011;52231;40.090;18.348;2022-08-21T04:28:23;9.75;;;2.22;;
65581;SDS011;52231;40.090;18.348;2022-08-21T04:30:54;8.13;;;2.35;;
65581;SDS011;52231;40.090;18.348;2022-08-21T04:33:22;6.82;;;2.60;;
65581;SDS011;52231;40.090;18.348;2022-08-21T04:35:57;6.70;;;2.40;;
65581;SDS011;52231;40.090;18.348;2022-08-21T04:38:26;5.32;;;2.40;;
65581;SDS011;52231;40.090;18.348;2022-08-21T04:40:54;4.32;;;2.20;;
65581;SDS011;52231;40.090;18.348;2022-08-21T04:43:22;8.52;;;2.20;;
65581;SDS011;52231;40.090;18.348;2022-08-21T04:48:20;5.43;;;2.30;;
65581;SDS011;52231;40.090;18.348;2022-08-21T04:54:19;4.95;;;2.05;;
65581;SDS011;52231;40.090;18.348;2022-08-21T04:56:51;6.20;;;2.28;;
65581;SDS011;52231;40.090;18.348;2022-08-21T04:59:27;6.25;;;2.13;;
65581;SDS011;52231;40.090;18.348;2022-08-21T05:02:00;7.65;;;2.00;;
65581;SDS011;52231;40.090;18.348;2022-08-21T05:04:30;5.93;;;1.95;;
65581;SDS011;52231;40.090;18.348;2022-08-21T05:07:02;8.93;;;2.10;;
65581;SDS011;52231;40.090;18.348;2022-08-21T05:09:33;5.22;;;1.95;;
65581;SDS011;52231;40.090;18.348;2022-08-21T05:12:02;5.47;;;2.20;;
65581;SDS011;52231;40.090;18.348;2022-08-21T05:14:30;7.53;;;2.00;;
65581;SDS011;52231;40.090;18.348;2022-08-21T05:16:59;5.28;;;2.00;;
65581;SDS011;52231;40.090;18.348;2022-08-21T05:19:27;5.13;;;1.92;;
65581;SDS011;52231;40.090;18.348;2022-08-21T05:24:23;6.03;;;2.50;;
65581;SDS011;52231;40.090;18.348;2022-08-21T05:26:51;5.28;;;1.90;;
65581;SDS011;52231;40.090;18.348;2022-08-21T05:29:20;5.63;;;2.25;;
65581;SDS011;52231;40.090;18.348;2022-08-21T05:31:49;7.57;;;2.20;;
65581;SDS011;52231;40.090;18.348;2022-08-21T05:34:17;6.50;;;2.20;;
65581;SDS011;52231;40.090;18.348;2022-08-21T05:36:47;5.72;;;2.17;;
65581;SDS011;52231;40.090;18.348;2022-08-21T05:39:15;8.82;;;2.15;;
65581;SDS011;52231;40.090;18.348;2022-08-21T05:41:44;8.07;;;2.47;;
65581;SDS011;52231;40.090;18.348;2022-08-21T05:44:12;5.88;;;2.17;;
65581;SDS011;52231;40.090;18.348;2022-08-21T05:46:40;5.47;;;2.35;;
65581;SDS011;52231;40.090;18.348;2022-08-21T05:49:08;8.70;;;2.63;;
65581;SDS011;52231;40.090;18.348;2022-08-21T05:51:36;6.55;;;2.33;;
65581;SDS011;52231;40.090;18.348;2022-08-21T05:54:07;7.53;;;2.33;;
65581;SDS011;52231;40.090;18.348;2022-08-21T05:56:36;8.10;;;2.60;;
65581;SDS011;52231;40.090;18.348;2022-08-21T05:59:07;8.70;;;2.50;;
65581;SDS011;52231;40.090;18.348;2022-08-21T06:01:35;5.03;;;2.33;;
65581;SDS011;52231;40.090;18.348;2022-08-21T06:04:04;8.40;;;2.70;;
65581;SDS011;52231;40.090;18.348;2022-08-21T06:06:33;4.45;;;2.33;;
65581;SDS011;52231;40.090;18.348;2022-08-21T06:09:01;7.68;;;2.67;;
65581;SDS011;52231;40.090;18.348;2022-08-21T06:11:30;7.05;;;2.45;;
65581;SDS011;52231;40.090;18.348;2022-08-21T06:13:59;7.10;;;2.60;;
65581;SDS011;52231;40.090;18.348;2022-08-21T06:16:27;9.20;;;2.88;;
65581;SDS011;52231;40.090;18.348;2022-08-21T06:18:55;8.30;;;2.70;;
65581;SDS011;52231;40.090;18.348;2022-08-21T06:21:27;4.28;;;2.20;;
65581;SDS011;52231;40.090;18.348;2022-08-21T06:23:55;9.23;;;2.95;;
65581;SDS011;52231;40.090;18.348;2022-08-21T06:26:23;9.60;;;2.30;;
65581;SDS011;52231;40.090;18.348;2022-08-21T06:28:51;8.02;;;2.55;;
65581;SDS011;52231;40.090;18.348;2022-08-21T06:31:22;7.97;;;2.40;;
65581;SDS011;52231;40.090;18.348;2022-08-21T06:33:52;7.68;;;2.50;;
65581;SDS011;52231;40.090;18.348;2022-08-21T06:36:21;6.50;;;2.40;;
65581;SDS011;52231;40.090;18.348;2022-08-21T06:38:49;9.30;;;2.65;;
65581;SDS011;52231;40.090;18.348;2022-08-21T06:41:18;7.82;;;2.10;;
65581;SDS011;52231;40.090;18.348;2022-08-21T06:43:47;6.28;;;2.75;;
65581;SDS011;52231;40.090;18.348;2022-08-21T06:46:16;8.25;;;2.15;;
65581;SDS011;52231;40.090;18.348;2022-08-21T06:48:44;10.45;;;2.38;;
65581;SDS011;52231;40.090;18.348;2022-08-21T06:51:12;8.85;;;2.67;;
65581;SDS011;52231;40.090;18.348;2022-08-21T06:53:40;8.30;;;2.08;;
65581;SDS011;52231;40.090;18.348;2022-08-21T06:56:09;8.40;;;2.38;;
65581;SDS011;52231;40.090;18.348;2022-08-21T06:58:37;8.57;;;2.55;;
65581;SDS011;52231;40.090;18.348;2022-08-21T07:01:05;6.18;;;2.28;;
65581;SDS011;52231;40.090;18.348;2022-08-21T07:03:38;5.80;;;2.15;;
65581;SDS011;52231;40.090;18.348;2022-08-21T07:06:08;12.32;;;3.10;;
65581;SDS011;52231;40.090;18.348;2022-08-21T07:08:38;10.43;;;3.05;;
65581;SDS011;52231;40.090;18.348;2022-08-21T07:11:09;8.00;;;2.25;;
65581;SDS011;52231;40.090;18.348;2022-08-21T07:14:00;12.32;;;2.70;;
65581;SDS011;52231;40.090;18.348;2022-08-21T07:16:29;9.35;;;2.50;;
65581;SDS011;52231;40.090;18.348;2022-08-21T07:18:57;9.60;;;2.45;;
65581;SDS011;52231;40.090;18.348;2022-08-21T07:21:25;5.18;;;2.22;;
65581;SDS011;52231;40.090;18.348;2022-08-21T07:23:53;8.82;;;2.38;;
65581;SDS011;52231;40.090;18.348;2022-08-21T07:26:22;8.60;;;2.60;;
65581;SDS011;52231;40.090;18.348;2022-08-21T07:28:52;8.00;;;2.40;;
65581;SDS011;52231;40.090;18.348;2022-08-21T07:31:22;10.68;;;2.70;;
65581;SDS011;52231;40.090;18.348;2022-08-21T07:33:52;7.22;;;2.55;;
65581;SDS011;52231;40.090;18.348;2022-08-21T07:36:21;10.05;;;2.50;;
65581;SDS011;52231;40.090;18.348;2022-08-21T07:38:49;10.75;;;2.78;;
65581;SDS011;52231;40.090;18.348;2022-08-21T07:41:18;14.65;;;3.00;;
65581;SDS011;52231;40.090;18.348;2022-08-21T07:43:51;6.97;;;2.25;;
65581;SDS011;52231;40.090;18.348;2022-08-21T07:46:19;8.50;;;2.58;;
65581;SDS011;52231;40.090;18.348;2022-08-21T07:48:50;7.85;;;2.30;;
65581;SDS011;52231;40.090;18.348;2022-08-21T07:51:21;7.65;;;2.47;;
65581;SDS011;52231;40.090;18.348;2022-08-21T07:53:54;10.77;;;2.60;;
65581;SDS011;52231;40.090;18.348;2022-08-21T07:56:24;7.18;;;2.17;;
65581;SDS011;52231;40.090;18.348;2022-08-21T07:58:52;9.02;;;2.60;;
65581;SDS011;52231;40.090;18.348;2022-08-21T08:01:20;7.70;;;2.10;;
65581;SDS011;52231;40.090;18.348;2022-08-21T08:03:49;12.30;;;2.92;;
65581;SDS011;52231;40.090;18.348;2022-08-21T08:06:19;10.50;;;2.45;;
65581;SDS011;52231;40.090;18.348;2022-08-21T08:08:48;9.90;;;2.83;;
65581;SDS011;52231;40.090;18.348;2022-08-21T08:11:16;7.65;;;2.63;;
65581;SDS011;52231;40.090;18.348;2022-08-21T08:13:46;8.18;;;2.53;;
65581;SDS011;52231;40.090;18.348;2022-08-21T08:16:17;10.32;;;2.40;;
65581;SDS011;52231;40.090;18.348;2022-08-21T08:18:45;8.15;;;2.38;;
65581;SDS011;52231;40.090;18.348;2022-08-21T08:21:13;8.85;;;2.63;;
65581;SDS011;52231;40.090;18.348;2022-08-21T08:23:42;9.82;;;2.75;;
65581;SDS011;52231;40.090;18.348;2022-08-21T08:26:12;7.55;;;2.20;;
65581;SDS011;52231;40.090;18.348;2022-08-21T08:28:40;8.35;;;2.33;;
65581;SDS011;52231;40.090;18.348;2022-08-21T08:31:09;8.00;;;2.38;;
65581;SDS011;52231;40.090;18.348;2022-08-21T08:33:37;9.52;;;2.42;;
65581;SDS011;52231;40.090;18.348;2022-08-21T08:36:08;6.93;;;2.22;;
65581;SDS011;52231;40.090;18.348;2022-08-21T08:38:41;10.55;;;2.70;;
65581;SDS011;52231;40.090;18.348;2022-08-21T08:41:16;6.90;;;2.20;;
65581;SDS011;52231;40.090;18.348;2022-08-21T08:43:55;9.40;;;2.20;;
65581;SDS011;52231;40.090;18.348;2022-08-21T08:46:51;9.38;;;2.13;;
65581;SDS011;52231;40.090;18.348;2022-08-21T08:52:41;7.97;;;2.10;;
65581;SDS011;52231;40.090;18.348;2022-08-21T08:58:15;9.38;;;2.40;;
65581;SDS011;52231;40.090;18.348;2022-08-21T09:03:19;8.10;;;2.28;;
65581;SDS011;52231;40.090;18.348;2022-08-21T09:11:48;9.82;;;2.28;;
65581;SDS011;52231;40.090;18.348;2022-08-21T09:20:37;6.63;;;1.80;;
65581;SDS011;52231;40.090;18.348;2022-08-21T09:25:59;12.30;;;2.45;;
65581;SDS011;52231;40.090;18.348;2022-08-21T09:28:42;8.10;;;2.35;;
65581;SDS011;52231;40.090;18.348;2022-08-21T09:31:16;10.40;;;2.65;;
65581;SDS011;52231;40.090;18.348;2022-08-21T09:33:57;10.25;;;2.00;;
65581;SDS011;52231;40.090;18.348;2022-08-21T09:36:40;9.57;;;2.20;;
65581;SDS011;52231;40.090;18.348;2022-08-21T09:39:28;8.00;;;2.13;;
65581;SDS011;52231;40.090;18.348;2022-08-21T09:42:01;10.20;;;2.17;;
65581;SDS011;52231;40.090;18.348;2022-08-21T09:44:34;9.15;;;2.25;;
65581;SDS011;52231;40.090;18.348;2022-08-21T09:47:07;8.02;;;2.20;;
65581;SDS011;52231;40.090;18.348;2022-08-21T09:49:38;11.35;;;2.78;;
65581;SDS011;52231;40.090;18.348;2022-08-21T09:52:16;11.32;;;2.40;;
65581;SDS011;52231;40.090;18.348;2022-08-21T09:54:51;6.90;;;2.00;;
65581;SDS011;52231;40.090;18.348;2022-08-21T09:57:25;12.02;;;2.13;;
65581;SDS011;52231;40.090;18.348;2022-08-21T10:02:52;8.75;;;2.05;;
65581;SDS011;52231;40.090;18.348;2022-08-21T10:05:25;7.03;;;2.13;;
65581;SDS011;52231;40.090;18.348;2022-08-21T10:07:54;8.85;;;2.33;;
65581;SDS011;52231;40.090;18.348;2022-08-21T10:10:23;10.65;;;2.65;;
65581;SDS011;52231;40.090;18.348;2022-08-21T10:30:13;13.30;;;2.90;;
65581;SDS011;52231;40.090;18.348;2022-08-21T10:32:50;12.88;;;3.35;;
65581;SDS011;52231;40.090;18.348;2022-08-21T10:55:31;6.72;;;2.17;;
65581;SDS011;52231;40.090;18.348;2022-08-21T10:58:14;11.82;;;2.40;;
65581;SDS011;52231;40.090;18.348;2022-08-21T11:00:53;7.32;;;2.00;;
65581;SDS011;52231;40.090;18.348;2022-08-21T11:03:42;6.60;;;2.10;;
65581;SDS011;52231;40.090;18.348;2022-08-21T11:06:27;7.72;;;1.90;;
65581;SDS011;52231;40.090;18.348;2022-08-21T11:09:05;10.13;;;1.98;;
65581;SDS011;52231;40.090;18.348;2022-08-21T11:14:59;9.38;;;2.20;;
65581;SDS011;52231;40.090;18.348;2022-08-21T11:17:50;8.95;;;2.22;;
65581;SDS011;52231;40.090;18.348;2022-08-21T11:20:28;7.85;;;2.38;;
65581;SDS011;52231;40.090;18.348;2022-08-21T11:23:11;10.52;;;1.90;;
65581;SDS011;52231;40.090;18.348;2022-08-21T11:28:51;8.18;;;2.15;;
65581;SDS011;52231;40.090;18.348;2022-08-21T11:37:06;7.82;;;1.80;;
65581;SDS011;52231;40.090;18.348;2022-08-21T11:45:50;8.63;;;2.03;;
65581;SDS011;52231;40.090;18.348;2022-08-21T11:48:40;9.63;;;2.00;;
65581;SDS011;52231;40.090;18.348;2022-08-21T11:51:21;6.38;;;1.85;;
65581;SDS011;52231;40.090;18.348;2022-08-21T11:56:42;10.30;;;2.33;;
65581;SDS011;52231;40.090;18.348;2022-08-21T11:59:17;9.15;;;2.00;;
65581;SDS011;52231;40.090;18.348;2022-08-21T12:01:54;6.32;;;1.95;;
65581;SDS011;52231;40.090;18.348;2022-08-21T12:06:56;6.45;;;1.80;;
65581;SDS011;52231;40.090;18.348;2022-08-21T12:12:25;9.85;;;2.13;;
65581;SDS011;52231;40.090;18.348;2022-08-21T12:18:00;10.32;;;2.08;;
65581;SDS011;52231;40.090;18.348;2022-08-21T12:21:34;5.43;;;1.83;;
65581;SDS011;52231;40.090;18.348;2022-08-21T12:24:04;9.23;;;2.08;;
65581;SDS011;52231;40.090;18.348;2022-08-21T12:29:33;8.57;;;1.90;;
65581;SDS011;52231;40.090;18.348;2022-08-21T12:34:46;7.97;;;1.73;;
65581;SDS011;52231;40.090;18.348;2022-08-21T12:40:18;5.55;;;2.00;;
65581;SDS011;52231;40.090;18.348;2022-08-21T12:42:51;5.20;;;1.58;;
65581;SDS011;52231;40.090;18.348;2022-08-21T12:45:36;6.03;;;1.70;;
65581;SDS011;52231;40.090;18.348;2022-08-21T12:48:11;9.43;;;1.70;;
65581;SDS011;52231;40.090;18.348;2022-08-21T12:50:54;6.55;;;2.20;;
65581;SDS011;52231;40.090;18.348;2022-08-21T12:53:30;6.70;;;1.63;;
65581;SDS011;52231;40.090;18.348;2022-08-21T12:56:04;5.80;;;1.60;;
65581;SDS011;52231;40.090;18.348;2022-08-21T13:01:36;4.50;;;1.60;;
65581;SDS011;52231;40.090;18.348;2022-08-21T13:04:12;7.40;;;2.00;;
65581;SDS011;52231;40.090;18.348;2022-08-21T13:06:54;6.63;;;1.75;;
65581;SDS011;52231;40.090;18.348;2022-08-21T13:09:28;5.20;;;1.65;;
65581;SDS011;52231;40.090;18.348;2022-08-21T13:11:58;8.20;;;1.88;;
65581;SDS011;52231;40.090;18.348;2022-08-21T13:14:29;10.13;;;1.83;;
65581;SDS011;52231;40.090;18.348;2022-08-21T13:17:03;7.28;;;1.83;;
65581;SDS011;52231;40.090;18.348;2022-08-21T13:19:33;11.93;;;2.00;;
65581;SDS011;52231;40.090;18.348;2022-08-21T13:22:02;5.45;;;1.70;;
65581;SDS011;52231;40.090;18.348;2022-08-21T13:24:33;5.55;;;1.75;;
65581;SDS011;52231;40.090;18.348;2022-08-21T13:27:18;8.63;;;1.65;;
65581;SDS011;52231;40.090;18.348;2022-08-21T13:30:00;3.15;;;1.38;;
65581;SDS011;52231;40.090;18.348;2022-08-21T13:32:40;9.25;;;2.03;;
65581;SDS011;52231;40.090;18.348;2022-08-21T13:35:23;8.60;;;1.77;;
65581;SDS011;52231;40.090;18.348;2022-08-21T13:38:13;9.38;;;1.58;;
65581;SDS011;52231;40.090;18.348;2022-08-21T13:40:45;9.07;;;1.75;;
65581;SDS011;52231;40.090;18.348;2022-08-21T13:43:21;7.53;;;1.67;;
65581;SDS011;52231;40.090;18.348;2022-08-21T13:45:55;7.07;;;1.75;;
65581;SDS011;52231;40.090;18.348;2022-08-21T13:48:28;5.72;;;1.52;;
65581;SDS011;52231;40.090;18.348;2022-08-21T13:51:00;4.60;;;1.40;;
65581;SDS011;52231;40.090;18.348;2022-08-21T13:53:31;5.82;;;1.60;;
65581;SDS011;52231;40.090;18.348;2022-08-21T13:56:00;6.10;;;1.50;;
65581;SDS011;52231;40.090;18.348;2022-08-21T13:58:41;8.15;;;1.77;;
65581;SDS011;52231;40.090;18.348;2022-08-21T14:04:22;6.07;;;1.60;;
65581;SDS011;52231;40.090;18.348;2022-08-21T14:06:54;6.35;;;1.50;;
65581;SDS011;52231;40.090;18.348;2022-08-21T14:09:31;8.48;;;2.22;;
65581;SDS011;52231;40.090;18.348;2022-08-21T14:12:01;3.78;;;1.33;;
65581;SDS011;52231;40.090;18.348;2022-08-21T14:14:40;5.68;;;1.77;;
65581;SDS011;52231;40.090;18.348;2022-08-21T14:17:10;4.88;;;1.42;;
65581;SDS011;52231;40.090;18.348;2022-08-21T14:19:57;4.88;;;1.52;;
65581;SDS011;52231;40.090;18.348;2022-08-21T14:22:46;4.25;;;1.25;;
65581;SDS011;52231;40.090;18.348;2022-08-21T14:28:57;7.68;;;1.70;;
65581;SDS011;52231;40.090;18.348;2022-08-21T14:31:11;4.43;;;1.50;;
65581;SDS011;52231;40.090;18.348;2022-08-21T14:33:49;7.35;;;1.40;;
65581;SDS011;52231;40.090;18.348;2022-08-21T14:36:17;5.05;;;1.50;;
65581;SDS011;52231;40.090;18.348;2022-08-21T14:38:46;7.18;;;1.73;;
65581;SDS011;52231;40.090;18.348;2022-08-21T14:43:46;5.03;;;1.35;;
65581;SDS011;52231;40.090;18.348;2022-08-21T14:46:20;5.78;;;1.48;;
65581;SDS011;52231;40.090;18.348;2022-08-21T14:48:56;6.47;;;1.50;;
65581;SDS011;52231;40.090;18.348;2022-08-21T14:51:25;5.65;;;1.50;;
65581;SDS011;52231;40.090;18.348;2022-08-21T14:53:53;5.72;;;1.77;;
65581;SDS011;52231;40.090;18.348;2022-08-21T14:56:21;8.35;;;1.63;;
65581;SDS011;52231;40.090;18.348;2022-08-21T14:58:50;5.80;;;1.77;;
65581;SDS011;52231;40.090;18.348;2022-08-21T15:01:20;5.80;;;1.50;;
65581;SDS011;52231;40.090;18.348;2022-08-21T15:03:50;5.45;;;1.55;;
65581;SDS011;52231;40.090;18.348;2022-08-21T15:06:23;5.28;;;1.52;;
65581;SDS011;52231;40.090;18.348;2022-08-21T15:08:55;7.13;;;1.88;;
65581;SDS011;52231;40.090;18.348;2022-08-21T15:11:23;6.63;;;1.77;;
65581;SDS011;52231;40.090;18.348;2022-08-21T15:13:53;9.88;;;1.60;;
65581;SDS011;52231;40.090;18.348;2022-08-21T15:16:26;5.75;;;1.70;;
65581;SDS011;52231;40.090;18.348;2022-08-21T15:18:56;6.40;;;1.73;;
65581;SDS011;52231;40.090;18.348;2022-08-21T15:21:24;5.93;;;1.50;;
65581;SDS011;52231;40.090;18.348;2022-08-21T15:23:53;6.70;;;2.30;;
65581;SDS011;52231;40.090;18.348;2022-08-21T15:26:21;9.57;;;1.80;;
65581;SDS011;52231;40.090;18.348;2022-08-21T15:28:50;5.82;;;1.70;;
65581;SDS011;52231;40.090;18.348;2022-08-21T15:31:19;5.60;;;1.50;;
65581;SDS011;52231;40.090;18.348;2022-08-21T15:33:47;7.53;;;1.65;;
65581;SDS011;52231;40.090;18.348;2022-08-21T15:36:15;10.10;;;2.13;;
65581;SDS011;52231;40.090;18.348;2022-08-21T15:38:44;7.53;;;1.40;;
65581;SDS011;52231;40.090;18.348;2022-08-21T15:41:12;2.10;;;1.30;;
65581;SDS011;52231;40.090;18.348;2022-08-21T15:43:47;6.57;;;1.70;;
65581;SDS011;52231;40.090;18.348;2022-08-21T15:46:18;4.80;;;1.58;;
65581;SDS011;52231;40.090;18.348;2022-08-21T15:48:47;4.63;;;1.60;;
65581;SDS011;52231;40.090;18.348;2022-08-21T15:51:17;6.10;;;1.50;;
65581;SDS011;52231;40.090;18.348;2022-08-21T15:53:46;4.90;;;1.40;;
65581;SDS011;52231;40.090;18.348;2022-08-21T15:56:18;5.85;;;1.80;;
65581;SDS011;52231;40.090;18.348;2022-08-21T15:58:49;7.78;;;2.00;;
65581;SDS011;52231;40.090;18.348;2022-08-21T16:01:20;10.43;;;2.20;;
65581;SDS011;52231;40.090;18.348;2022-08-21T16:03:50;8.10;;;1.63;;
65581;SDS011;52231;40.090;18.348;2022-08-21T16:06:21;5.47;;;1.70;;
65581;SDS011;52231;40.090;18.348;2022-08-21T16:08:49;5.25;;;1.77;;
65581;SDS011;52231;40.090;18.348;2022-08-21T16:11:18;4.15;;;1.60;;
65581;SDS011;52231;40.090;18.348;2022-08-21T16:13:47;8.05;;;1.50;;
65581;SDS011;52231;40.090;18.348;2022-08-21T16:16:19;7.90;;;1.90;;
65581;SDS011;52231;40.090;18.348;2022-08-21T16:18:49;7.20;;;2.28;;
65581;SDS011;52231;40.090;18.348;2022-08-21T16:21:19;7.85;;;2.33;;
65581;SDS011;52231;40.090;18.348;2022-08-21T16:23:47;9.52;;;2.03;;
65581;SDS011;52231;40.090;18.348;2022-08-21T16:26:18;7.65;;;2.05;;
65581;SDS011;52231;40.090;18.348;2022-08-21T16:28:47;6.82;;;1.80;;
65581;SDS011;52231;40.090;18.348;2022-08-21T16:31:18;7.40;;;2.03;;
65581;SDS011;52231;40.090;18.348;2022-08-21T16:33:48;7.60;;;2.25;;
65581;SDS011;52231;40.090;18.348;2022-08-21T16:36:19;6.57;;;2.17;;
65581;SDS011;52231;40.090;18.348;2022-08-21T16:38:48;6.68;;;2.00;;
65581;SDS011;52231;40.090;18.348;2022-08-21T16:41:17;6.82;;;2.10;;
65581;SDS011;52231;40.090;18.348;2022-08-21T16:43:48;7.53;;;2.28;;
65581;SDS011;52231;40.090;18.348;2022-08-21T16:46:18;7.75;;;2.30;;
65581;SDS011;52231;40.090;18.348;2022-08-21T16:48:48;8.88;;;2.35;;
65581;SDS011;52231;40.090;18.348;2022-08-21T16:51:16;7.72;;;2.20;;
65581;SDS011;52231;40.090;18.348;2022-08-21T16:53:45;8.20;;;2.50;;
65581;SDS011;52231;40.090;18.348;2022-08-21T16:56:13;10.18;;;2.60;;
65581;SDS011;52231;40.090;18.348;2022-08-21T16:58:44;8.63;;;2.50;;
65581;SDS011;52231;40.090;18.348;2022-08-21T17:01:17;7.15;;;2.05;;
65581;SDS011;52231;40.090;18.348;2022-08-21T17:03:49;7.90;;;2.20;;
65581;SDS011;52231;40.090;18.348;2022-08-21T17:06:20;9.73;;;2.47;;
65581;SDS011;52231;40.090;18.348;2022-08-21T17:08:49;12.13;;;2.50;;
65581;SDS011;52231;40.090;18.348;2022-08-21T17:11:26;6.35;;;2.20;;